createdAt,value
2017-10-01T00:00:21.064Z,13.52
2017-10-01T00:02:49.375Z,13.57
2017-10-01T00:05:18.453Z,13.45
2017-10-01T00:07:46.767Z,13.47
2017-10-01T00:10:15.073Z,13.43
2017-10-01T00:12:43.393Z,13.40
2017-10-01T00:15:12.453Z,13.40
2017-10-01T00:17:40.794Z,13.45
2017-10-01T00:20:09.085Z,13.43
2017-10-01T00:22:37.418Z,13.51
2017-10-01T00:25:05.728Z,13.52
2017-10-01T00:27:34.028Z,13.54
2017-10-01T00:30:03.118Z,13.47
2017-10-01T00:32:31.408Z,13.47
2017-10-01T00:34:59.762Z,13.31
2017-10-01T00:37:28.062Z,13.33
2017-10-01T00:39:56.373Z,13.38
2017-10-01T00:42:24.669Z,13.36
2017-10-01T00:44:53.749Z,13.40
2017-10-01T00:47:22.825Z,13.44
2017-10-01T00:49:51.155Z,13.41
2017-10-01T00:52:19.461Z,13.46
2017-10-01T00:54:47.753Z,13.39
2017-10-01T00:57:16.070Z,13.43
2017-10-01T00:59:44.374Z,13.46
2017-10-01T01:02:12.706Z,13.50
2017-10-01T01:04:41.787Z,13.31
2017-10-01T01:07:10.094Z,13.21
2017-10-01T01:09:39.169Z,13.27
2017-10-01T01:12:07.487Z,13.25
2017-10-01T01:14:35.786Z,13.28
2017-10-01T01:17:04.098Z,13.23
2017-10-01T01:19:32.409Z,13.23
2017-10-01T01:22:00.722Z,13.23
2017-10-01T01:24:29.785Z,13.25
2017-10-01T01:26:58.101Z,13.22
2017-10-01T01:29:26.417Z,13.16
2017-10-01T01:31:55.492Z,13.21
2017-10-01T01:34:23.809Z,13.21
2017-10-01T01:36:52.110Z,13.27
2017-10-01T01:39:20.422Z,13.22
2017-10-01T01:41:48.717Z,13.23
2017-10-01T01:44:17.801Z,13.23
2017-10-01T01:46:46.110Z,13.18
2017-10-01T01:49:14.447Z,13.14
2017-10-01T01:51:42.745Z,13.10
2017-10-01T01:54:11.838Z,13.19
2017-10-01T01:56:40.901Z,13.11
2017-10-01T01:59:09.205Z,13.18
2017-10-01T02:01:37.522Z,13.18
2017-10-01T02:04:05.820Z,13.08
2017-10-01T02:06:34.139Z,13.13
2017-10-01T02:09:03.211Z,13.05
2017-10-01T02:11:31.529Z,13.04
2017-10-01T02:14:00.590Z,12.99
2017-10-01T02:16:28.919Z,13.01
2017-10-01T02:18:57.238Z,12.98
2017-10-01T02:21:25.554Z,12.77
2017-10-01T02:23:53.858Z,12.98
2017-10-01T02:26:22.174Z,12.99
2017-10-01T02:28:50.481Z,13.02
2017-10-01T02:31:19.579Z,12.97
2017-10-01T02:33:48.700Z,12.93
2017-10-01T02:36:17.014Z,12.85
2017-10-01T02:38:45.333Z,12.87
2017-10-01T02:41:13.636Z,12.90
2017-10-01T02:43:41.949Z,12.79
2017-10-01T02:46:10.249Z,12.79
2017-10-01T02:48:39.335Z,12.73
2017-10-01T02:51:07.647Z,12.76
2017-10-01T02:53:35.971Z,12.79
2017-10-01T02:56:04.284Z,12.75
2017-10-01T02:58:33.371Z,12.68
2017-10-01T03:01:02.442Z,12.66
2017-10-01T03:03:30.751Z,12.63
2017-10-01T03:05:59.814Z,12.67
2017-10-01T03:08:28.150Z,12.68
2017-10-01T03:10:56.460Z,12.69
2017-10-01T03:13:24.761Z,12.69
2017-10-01T03:15:53.069Z,12.73
2017-10-01T03:18:21.373Z,12.72
2017-10-01T03:20:49.685Z,12.75
2017-10-01T03:23:17.989Z,12.77
2017-10-01T03:25:47.078Z,12.77
2017-10-01T03:28:16.142Z,12.74
2017-10-01T03:30:44.475Z,12.77
2017-10-01T03:33:12.786Z,12.73
2017-10-01T03:35:41.122Z,12.69
2017-10-01T03:38:09.445Z,12.70
2017-10-01T03:40:37.760Z,12.68
2017-10-01T03:43:06.838Z,12.59
2017-10-01T03:45:35.156Z,12.62
2017-10-01T03:48:03.468Z,12.63
2017-10-01T03:50:31.773Z,12.65
2017-10-01T03:53:00.102Z,12.62
2017-10-01T03:55:28.406Z,12.71
2017-10-01T03:57:56.717Z,12.68
2017-10-01T04:00:25.805Z,12.82
2017-10-01T04:02:54.113Z,12.71
2017-10-01T04:05:22.421Z,12.64
2017-10-01T04:07:50.734Z,12.54
2017-10-01T04:10:19.825Z,12.63
2017-10-01T04:12:48.169Z,12.49
2017-10-01T04:15:16.483Z,12.58
2017-10-01T04:17:44.789Z,12.44
2017-10-01T04:20:13.109Z,12.41
2017-10-01T04:22:41.418Z,12.42
2017-10-01T04:25:09.742Z,12.36
2017-10-01T04:27:38.070Z,12.39
2017-10-01T04:30:06.390Z,12.38
2017-10-01T04:32:34.693Z,12.29
2017-10-01T04:35:03.061Z,12.29
2017-10-01T04:37:31.368Z,12.37
2017-10-01T04:39:59.670Z,12.28
2017-10-01T04:42:28.756Z,12.28
2017-10-01T04:44:57.862Z,12.32
2017-10-01T04:47:26.965Z,12.38
2017-10-01T04:49:56.030Z,12.44
2017-10-01T04:52:24.346Z,12.51
2017-10-01T04:54:52.650Z,12.42
2017-10-01T04:57:20.970Z,12.42
2017-10-01T04:59:49.293Z,12.32
2017-10-01T05:02:17.639Z,12.39
2017-10-01T05:04:46.719Z,12.49
2017-10-01T05:07:15.056Z,12.36
2017-10-01T05:09:43.376Z,12.29
2017-10-01T05:12:11.685Z,12.28
2017-10-01T05:14:39.998Z,12.31
2017-10-01T05:17:09.136Z,12.23
2017-10-01T05:19:38.217Z,12.23
2017-10-01T05:22:06.530Z,12.33
2017-10-01T05:24:34.841Z,12.44
2017-10-01T05:27:03.148Z,12.45
2017-10-01T05:29:31.461Z,12.49
2017-10-01T05:31:59.777Z,12.47
2017-10-01T05:34:28.121Z,12.46
2017-10-01T05:36:56.426Z,12.45
2017-10-01T05:39:25.504Z,12.38
2017-10-01T05:41:53.860Z,12.28
2017-10-01T05:44:22.929Z,12.31
2017-10-01T05:46:51.253Z,12.35
2017-10-01T05:49:19.558Z,12.28
2017-10-01T05:51:47.875Z,12.39
2017-10-01T05:54:17.005Z,12.31
2017-10-01T05:56:45.334Z,12.38
2017-10-01T05:59:13.677Z,12.35
2017-10-01T06:01:41.994Z,12.34
2017-10-01T06:04:11.077Z,12.46
2017-10-01T06:06:39.392Z,12.53
2017-10-01T06:09:07.713Z,12.49
2017-10-01T06:11:36.045Z,12.56
2017-10-01T06:14:04.348Z,12.43
2017-10-01T06:16:32.656Z,12.51
2017-10-01T06:19:00.988Z,12.58
2017-10-01T06:21:29.301Z,12.73
2017-10-01T06:23:57.617Z,12.75
2017-10-01T06:26:26.687Z,12.69
2017-10-01T06:28:55.001Z,12.67
2017-10-01T06:31:23.318Z,12.63
2017-10-01T06:33:51.653Z,12.79
2017-10-01T06:36:20.729Z,12.84
2017-10-01T06:38:49.038Z,12.98
2017-10-01T06:41:17.353Z,13.02
2017-10-01T06:43:45.663Z,12.85
2017-10-01T06:46:13.979Z,12.65
2017-10-01T06:48:42.294Z,12.78
2017-10-01T06:51:10.622Z,12.97
2017-10-01T06:53:38.926Z,13.05
2017-10-01T06:56:07.245Z,13.09
2017-10-01T06:58:35.555Z,13.01
2017-10-01T07:01:03.869Z,12.86
2017-10-01T07:03:32.189Z,13.07
2017-10-01T07:06:01.267Z,13.09
2017-10-01T07:08:29.590Z,13.10
2017-10-01T07:10:57.898Z,13.16
2017-10-01T07:13:26.218Z,13.24
2017-10-01T07:15:55.293Z,13.22
2017-10-01T07:18:23.614Z,13.17
2017-10-01T07:20:51.921Z,13.27
2017-10-01T07:23:20.246Z,13.25
2017-10-01T07:25:49.319Z,13.16
2017-10-01T07:28:17.637Z,13.12
2017-10-01T07:30:45.946Z,13.19
2017-10-01T07:33:14.282Z,13.28
2017-10-01T07:35:43.358Z,13.21
2017-10-01T07:38:11.676Z,13.36
2017-10-01T07:40:39.997Z,13.13
2017-10-01T07:43:08.317Z,13.34
2017-10-01T07:45:36.635Z,13.51
2017-10-01T07:48:05.718Z,13.62
2017-10-01T07:50:34.043Z,13.43
2017-10-01T07:53:03.142Z,13.41
2017-10-01T07:55:32.273Z,13.65
2017-10-01T07:58:00.588Z,13.65
2017-10-01T08:00:28.924Z,13.77
2017-10-01T08:02:57.235Z,13.81
2017-10-01T08:05:25.590Z,13.74
2017-10-01T08:07:53.902Z,13.81
2017-10-01T08:10:22.229Z,13.76
2017-10-01T08:12:51.545Z,13.60
2017-10-01T08:15:19.852Z,13.53
2017-10-01T08:17:48.174Z,13.51
2017-10-01T08:20:17.254Z,13.61
2017-10-01T08:22:46.333Z,13.80
2017-10-01T08:25:14.645Z,13.97
2017-10-01T08:27:42.969Z,13.87
2017-10-01T08:30:11.284Z,14.00
2017-10-01T08:32:40.380Z,14.12
2017-10-01T08:35:09.461Z,14.24
2017-10-01T08:37:37.806Z,14.42
2017-10-01T08:40:06.128Z,14.41
2017-10-01T08:42:35.205Z,14.62
2017-10-01T08:45:03.534Z,14.75
2017-10-01T08:47:31.845Z,14.71
2017-10-01T08:50:00.169Z,14.86
2017-10-01T08:52:28.474Z,14.94
2017-10-01T08:54:56.796Z,14.89
2017-10-01T08:57:25.102Z,14.86
2017-10-01T08:59:53.414Z,14.66
2017-10-01T09:02:21.721Z,14.98
2017-10-01T09:04:50.041Z,15.03
2017-10-01T09:07:18.347Z,15.48
2017-10-01T09:09:46.688Z,15.55
2017-10-01T09:12:14.997Z,15.59
2017-10-01T09:14:43.331Z,16.15
2017-10-01T09:17:12.412Z,16.76
2017-10-01T09:19:40.725Z,17.19
2017-10-01T09:22:09.033Z,16.69
2017-10-01T09:24:37.348Z,16.22
2017-10-01T09:27:05.673Z,15.78
2017-10-01T09:29:33.997Z,16.80
2017-10-01T09:32:02.327Z,16.44
2017-10-01T09:34:30.650Z,16.34
2017-10-01T09:36:59.769Z,16.62
2017-10-01T09:39:28.841Z,16.50
2017-10-01T09:41:57.157Z,17.16
2017-10-01T09:44:25.486Z,17.07
2017-10-01T09:46:53.802Z,17.02
2017-10-01T09:49:22.117Z,16.74
2017-10-01T09:51:50.430Z,16.51
2017-10-01T09:54:18.748Z,16.54
2017-10-01T09:56:47.050Z,16.52
2017-10-01T09:59:15.382Z,16.71
2017-10-01T10:01:44.457Z,16.21
2017-10-01T10:04:12.765Z,16.55
2017-10-01T10:06:41.070Z,16.81
2017-10-01T10:09:09.401Z,16.74
2017-10-01T10:11:38.479Z,17.05
2017-10-01T10:14:06.801Z,17.48
2017-10-01T10:16:35.117Z,17.19
2017-10-01T10:19:03.415Z,16.68
2017-10-01T10:21:31.726Z,17.42
2017-10-01T10:24:00.030Z,17.94
2017-10-01T10:26:28.343Z,17.86
2017-10-01T10:28:56.655Z,17.77
2017-10-01T10:31:24.969Z,17.59
2017-10-01T10:33:53.285Z,17.31
2017-10-01T10:36:22.377Z,17.58
2017-10-01T10:38:50.698Z,17.50
2017-10-01T10:41:19.029Z,17.14
2017-10-01T10:43:47.333Z,17.02
2017-10-01T10:46:15.637Z,17.07
2017-10-01T10:48:43.957Z,16.86
2017-10-01T10:51:12.259Z,16.82
2017-10-01T10:53:41.350Z,16.77
2017-10-01T10:56:10.429Z,16.62
2017-10-01T10:58:38.758Z,16.79
2017-10-01T11:01:07.067Z,16.68
2017-10-01T11:03:35.394Z,16.81
2017-10-01T11:06:03.705Z,17.04
2017-10-01T11:08:32.031Z,17.31
2017-10-01T11:11:01.123Z,17.42
2017-10-01T11:13:30.255Z,17.57
2017-10-01T11:15:58.573Z,17.83
2017-10-01T11:18:26.885Z,17.78
2017-10-01T11:20:55.207Z,18.12
2017-10-01T11:23:27.229Z,18.40
2017-10-01T11:25:55.550Z,18.31
2017-10-01T11:28:23.854Z,18.20
2017-10-01T11:30:52.165Z,18.31
2017-10-01T11:33:20.488Z,18.62
2017-10-01T11:35:49.569Z,18.38
2017-10-01T11:38:17.891Z,18.23
2017-10-01T11:40:46.989Z,18.07
2017-10-01T11:43:16.067Z,17.84
2017-10-01T11:45:44.360Z,17.49
2017-10-01T11:48:13.438Z,17.34
2017-10-01T11:50:41.749Z,17.16
2017-10-01T11:53:10.097Z,17.01
2017-10-01T11:55:38.422Z,17.19
2017-10-01T11:58:06.737Z,16.79
2017-10-01T12:00:35.041Z,16.68
2017-10-01T12:03:03.353Z,16.96
2017-10-01T12:05:31.659Z,17.08
2017-10-01T12:07:59.969Z,16.60
2017-10-01T12:10:28.279Z,16.72
2017-10-01T12:12:56.593Z,16.82
2017-10-01T12:15:24.902Z,16.61
2017-10-01T12:17:53.980Z,16.79
2017-10-01T12:20:22.285Z,16.74
2017-10-01T12:22:51.390Z,16.94
2017-10-01T12:25:19.718Z,17.14
2017-10-01T12:27:48.029Z,17.28
2017-10-01T12:30:17.117Z,17.02
2017-10-01T12:32:45.423Z,17.13
2017-10-01T12:35:13.737Z,17.42
2017-10-01T12:37:42.069Z,17.50
2017-10-01T12:40:10.393Z,17.35
2017-10-01T12:42:39.454Z,17.56
2017-10-01T12:45:07.762Z,17.81
2017-10-01T12:47:36.061Z,17.94
2017-10-01T12:50:04.365Z,18.00
2017-10-01T12:52:33.446Z,18.14
2017-10-01T12:55:02.613Z,18.31
2017-10-01T12:57:30.923Z,18.35
2017-10-01T12:59:59.997Z,18.43
2017-10-01T13:02:28.308Z,18.64
2017-10-01T13:04:56.614Z,18.76
2017-10-01T13:07:24.929Z,18.61
2017-10-01T13:09:53.243Z,18.55
2017-10-01T13:12:21.561Z,18.41
2017-10-01T13:14:49.860Z,18.73
2017-10-01T13:17:18.169Z,18.67
2017-10-01T13:19:46.488Z,18.73
2017-10-01T13:22:14.805Z,18.71
2017-10-01T13:24:43.120Z,18.78
2017-10-01T13:27:11.449Z,18.69
2017-10-01T13:29:39.749Z,18.74
2017-10-01T13:32:08.824Z,18.71
2017-10-01T13:34:37.141Z,18.85
2017-10-01T13:37:05.437Z,19.31
2017-10-01T13:39:33.754Z,19.25
2017-10-01T13:42:02.067Z,19.21
2017-10-01T13:44:31.147Z,19.27
2017-10-01T13:47:00.284Z,19.04
2017-10-01T13:49:28.617Z,19.06
2017-10-01T13:51:56.934Z,18.65
2017-10-01T13:54:25.262Z,18.77
2017-10-01T13:56:53.594Z,18.29
2017-10-01T13:59:21.913Z,17.82
2017-10-01T14:01:50.248Z,17.86
2017-10-01T14:04:18.549Z,17.75
2017-10-01T14:06:46.869Z,17.92
2017-10-01T14:09:15.941Z,18.19
2017-10-01T14:11:44.370Z,18.44
2017-10-01T14:14:12.678Z,18.67
2017-10-01T14:16:41.756Z,19.06
2017-10-01T14:19:10.062Z,19.08
2017-10-01T14:21:38.374Z,19.50
2017-10-01T14:24:07.449Z,19.51
2017-10-01T14:26:35.751Z,19.17
2017-10-01T14:29:04.831Z,18.78
2017-10-01T14:31:33.906Z,18.24
2017-10-01T14:34:02.220Z,18.44
2017-10-01T14:36:30.537Z,18.75
2017-10-01T14:38:58.870Z,18.40
2017-10-01T14:41:27.937Z,17.73
2017-10-01T14:43:56.241Z,17.70
2017-10-01T14:46:25.321Z,18.50
2017-10-01T14:48:53.630Z,18.79
2017-10-01T14:51:21.954Z,18.58
2017-10-01T14:53:50.261Z,18.54
2017-10-01T14:56:19.345Z,18.75
2017-10-01T14:58:48.434Z,18.92
2017-10-01T15:01:16.766Z,19.00
2017-10-01T15:03:45.079Z,19.03
2017-10-01T15:06:13.398Z,18.82
2017-10-01T15:08:42.477Z,18.76
2017-10-01T15:11:11.577Z,18.90
2017-10-01T15:13:40.638Z,18.72
2017-10-01T15:16:08.970Z,18.56
2017-10-01T15:18:37.289Z,18.59
2017-10-01T15:21:05.599Z,18.54
2017-10-01T15:23:34.689Z,18.49
2017-10-01T15:26:03.761Z,18.47
2017-10-01T15:28:32.083Z,18.36
2017-10-01T15:31:01.163Z,18.25
2017-10-01T15:33:30.293Z,17.98
2017-10-01T15:35:58.593Z,18.01
2017-10-01T15:38:26.905Z,17.95
2017-10-01T15:40:56.053Z,17.85
2017-10-01T15:43:24.358Z,17.75
2017-10-01T15:45:52.673Z,17.63
2017-10-01T15:48:21.741Z,17.38
2017-10-01T15:50:50.061Z,17.41
2017-10-01T15:53:18.420Z,17.45
2017-10-01T15:55:47.510Z,17.40
2017-10-01T15:58:16.578Z,17.39
2017-10-01T16:00:44.916Z,17.21
2017-10-01T16:03:13.218Z,17.17
2017-10-01T16:05:41.525Z,16.85
2017-10-01T16:08:09.858Z,16.88
2017-10-01T16:10:38.157Z,16.78
2017-10-01T16:13:06.476Z,16.59
2017-10-01T16:15:35.551Z,16.52
2017-10-01T16:18:03.863Z,16.36
2017-10-01T16:20:32.205Z,16.26
2017-10-01T16:23:00.519Z,16.23
2017-10-01T16:25:28.828Z,16.25
2017-10-01T16:27:57.134Z,16.11
2017-10-01T16:30:25.494Z,15.96
2017-10-01T16:32:53.836Z,15.91
2017-10-01T16:35:22.133Z,15.76
2017-10-01T16:37:50.430Z,15.60
2017-10-01T16:40:18.742Z,15.44
2017-10-01T16:42:47.829Z,15.33
2017-10-01T16:45:16.923Z,15.16
2017-10-01T16:47:45.242Z,15.03
2017-10-01T16:50:13.553Z,14.94
2017-10-01T16:52:41.877Z,14.83
2017-10-01T16:55:11.017Z,14.75
2017-10-01T16:57:39.319Z,14.63
2017-10-01T17:00:07.657Z,14.54
2017-10-01T17:02:35.958Z,14.46
2017-10-01T17:05:04.355Z,14.43
2017-10-01T17:07:32.678Z,14.30
2017-10-01T17:10:01.007Z,14.23
2017-10-01T17:12:29.326Z,14.16
2017-10-01T17:14:57.638Z,14.09
2017-10-01T17:17:25.969Z,14.02
2017-10-01T17:19:55.060Z,13.96
2017-10-01T17:22:24.142Z,13.88
2017-10-01T17:24:52.450Z,13.83
2017-10-01T17:27:20.781Z,13.74
2017-10-01T17:29:49.087Z,13.71
2017-10-01T17:32:18.157Z,13.68
2017-10-01T17:34:46.478Z,13.64
2017-10-01T17:37:14.781Z,13.59
2017-10-01T17:39:43.102Z,13.55
2017-10-01T17:42:12.168Z,13.50
2017-10-01T17:44:40.485Z,13.44
2017-10-01T17:47:09.579Z,13.37
2017-10-01T17:49:38.674Z,13.35
2017-10-01T17:52:07.780Z,13.32
2017-10-01T17:54:36.127Z,13.30
2017-10-01T17:57:04.441Z,13.28
2017-10-01T17:59:32.746Z,13.26
2017-10-01T18:02:01.061Z,13.25
2017-10-01T18:04:29.372Z,13.21
2017-10-01T18:06:57.705Z,13.20
2017-10-01T18:09:26.011Z,13.21
2017-10-01T18:11:55.087Z,13.21
2017-10-01T18:14:23.405Z,13.16
2017-10-01T18:16:51.793Z,13.11
2017-10-01T18:19:20.093Z,13.06
2017-10-01T18:21:48.421Z,13.00
2017-10-01T18:24:17.494Z,12.97
2017-10-01T18:26:45.839Z,12.94
2017-10-01T18:29:14.160Z,12.93
2017-10-01T18:31:43.237Z,12.87
2017-10-01T18:34:11.557Z,12.82
2017-10-01T18:36:39.950Z,12.81
2017-10-01T18:39:08.274Z,12.78
2017-10-01T18:41:36.593Z,12.71
2017-10-01T18:44:04.914Z,12.67
2017-10-01T18:46:33.221Z,12.63
2017-10-01T18:49:02.362Z,12.57
2017-10-01T18:51:30.693Z,12.61
2017-10-01T18:53:59.784Z,12.62
2017-10-01T18:56:28.095Z,12.64
2017-10-01T18:58:56.409Z,12.64
2017-10-01T19:01:24.721Z,12.58
2017-10-01T19:03:53.803Z,12.53
2017-10-01T19:06:22.134Z,12.49
2017-10-01T19:08:50.446Z,12.42
2017-10-01T19:11:18.786Z,12.40
2017-10-01T19:13:47.090Z,12.40
2017-10-01T19:16:15.399Z,12.36
2017-10-01T19:18:43.719Z,12.33
2017-10-01T19:21:12.029Z,12.35
2017-10-01T19:23:41.113Z,12.35
2017-10-01T19:26:09.425Z,12.34
2017-10-01T19:28:37.738Z,12.32
2017-10-01T19:31:06.045Z,12.21
2017-10-01T19:33:34.373Z,12.34
2017-10-01T19:36:03.437Z,12.39
2017-10-01T19:38:31.776Z,12.32
2017-10-01T19:41:00.091Z,12.31
2017-10-01T19:43:28.401Z,12.29
2017-10-01T19:45:57.501Z,12.23
2017-10-01T19:48:25.830Z,12.18
2017-10-01T19:50:54.155Z,12.17
2017-10-01T19:53:22.473Z,12.14
2017-10-01T19:55:50.786Z,12.12
2017-10-01T19:58:19.111Z,12.05
2017-10-01T20:00:47.429Z,12.08
2017-10-01T20:03:15.737Z,12.04
2017-10-01T20:05:44.845Z,12.01
2017-10-01T20:08:13.150Z,12.02
2017-10-01T20:10:41.464Z,11.97
2017-10-01T20:13:09.777Z,11.93
2017-10-01T20:15:38.089Z,11.88
2017-10-01T20:18:06.409Z,11.83
2017-10-01T20:20:35.510Z,11.77
2017-10-01T20:23:04.595Z,11.71
2017-10-01T20:25:32.898Z,11.68
2017-10-01T20:28:01.222Z,11.64
2017-10-01T20:30:29.532Z,11.63
2017-10-01T20:32:58.620Z,11.59
2017-10-01T20:35:26.934Z,11.57
2017-10-01T20:37:55.278Z,11.53
2017-10-01T20:40:23.586Z,11.52
2017-10-01T20:42:51.899Z,11.47
2017-10-01T20:45:20.229Z,11.46
2017-10-01T20:47:48.558Z,11.45
2017-10-01T20:50:16.889Z,11.42
2017-10-01T20:52:45.211Z,11.36
2017-10-01T20:55:13.542Z,11.31
2017-10-01T20:57:41.851Z,11.22
2017-10-01T21:00:10.169Z,11.11
2017-10-01T21:02:38.485Z,11.05
2017-10-01T21:05:06.821Z,11.03
2017-10-01T21:07:35.126Z,10.90
2017-10-01T21:10:04.202Z,10.87
2017-10-01T21:12:33.294Z,10.88
2017-10-01T21:15:01.609Z,10.91
2017-10-01T21:17:29.932Z,10.89
2017-10-01T21:19:58.259Z,10.85
2017-10-01T21:22:26.586Z,10.81
2017-10-01T21:24:54.902Z,10.77
2017-10-01T21:27:23.977Z,10.73
2017-10-01T21:29:52.312Z,10.72
2017-10-01T21:32:20.649Z,10.68
2017-10-01T21:34:49.730Z,10.58
2017-10-01T21:37:18.084Z,10.54
2017-10-01T21:39:46.401Z,10.55
2017-10-01T21:42:15.480Z,10.54
2017-10-01T21:44:43.802Z,10.55
2017-10-01T21:47:12.111Z,10.52
2017-10-01T21:49:40.448Z,10.50
2017-10-01T21:52:08.764Z,10.45
2017-10-01T21:54:37.090Z,10.43
2017-10-01T21:57:06.170Z,10.39
2017-10-01T21:59:35.282Z,10.40
2017-10-01T22:02:03.592Z,10.42
2017-10-01T22:04:31.906Z,10.40
2017-10-01T22:07:00.234Z,10.35
2017-10-01T22:09:28.551Z,10.36
2017-10-01T22:11:56.882Z,10.34
2017-10-01T22:14:25.193Z,10.33
2017-10-01T22:16:53.518Z,10.34
2017-10-01T22:19:22.611Z,10.26
2017-10-01T22:21:50.947Z,10.20
2017-10-01T22:24:19.266Z,10.19
2017-10-01T22:26:48.374Z,10.17
2017-10-01T22:29:16.693Z,10.13
2017-10-01T22:31:45.025Z,10.11
2017-10-01T22:34:13.355Z,10.08
2017-10-01T22:36:41.673Z,10.00
2017-10-01T22:39:10.770Z,10.00
2017-10-01T22:41:39.867Z,9.95
2017-10-01T22:44:08.986Z,9.93
2017-10-01T22:46:37.309Z,9.93
2017-10-01T22:49:05.630Z,9.94
2017-10-01T22:51:33.970Z,9.95
2017-10-01T22:54:02.271Z,9.89
2017-10-01T22:56:30.595Z,9.89
2017-10-01T22:58:58.963Z,9.89
2017-10-01T23:01:27.269Z,9.86
2017-10-01T23:03:55.561Z,9.85
2017-10-01T23:06:23.873Z,9.86
2017-10-01T23:08:52.179Z,9.87
2017-10-01T23:11:20.498Z,9.83
2017-10-01T23:13:48.835Z,9.85
2017-10-01T23:16:17.165Z,9.87
2017-10-01T23:18:46.253Z,9.91
2017-10-01T23:21:15.342Z,9.92
2017-10-01T23:23:43.661Z,9.92
2017-10-01T23:26:11.978Z,9.93
2017-10-01T23:28:40.280Z,9.98
2017-10-01T23:31:09.404Z,9.99
2017-10-01T23:33:37.722Z,9.95
2017-10-01T23:36:06.054Z,9.93
2017-10-01T23:38:34.366Z,9.92
2017-10-01T23:41:02.697Z,9.90
2017-10-01T23:43:31.026Z,9.94
2017-10-01T23:45:59.340Z,9.95
2017-10-01T23:48:28.430Z,9.99
2017-10-01T23:50:57.521Z,10.00
2017-10-01T23:53:25.856Z,10.02
2017-10-01T23:55:54.161Z,9.99
2017-10-01T23:58:22.491Z,10.01
